sensor_id;sensor_type;location;lat;lon;timestamp;pressure;altitude;pressure_sealevel;temperature;humidity
21273;BME280;36726;52.328;10.552;2023-02-25T00:01:14;98789.56;;;4.16;100.00
21273;BME280;36726;52.328;10.552;2023-02-25T00:03:40;98788.69;;;4.16;100.00
21273;BME280;36726;52.328;10.552;2023-02-25T00:06:09;98786.91;;;4.13;100.00
21273;BME280;36726;52.328;10.552;2023-02-25T00:08:42;98803.50;;;4.14;100.00
21273;BME280;36726;52.328;10.552;2023-02-25T00:11:09;98797.38;;;4.13;100.00
21273;BME280;36726;52.328;10.552;2023-02-25T00:13:38;98793.91;;;4.13;100.00
21273;BME280;36726;52.328;10.552;2023-02-25T00:16:06;98796.50;;;4.11;100.00
21273;BME280;36726;52.328;10.552;2023-02-25T00:18:34;98800.00;;;4.13;100.00
21273;BME280;36726;52.328;10.552;2023-02-25T00:21:04;98798.25;;;4.12;100.00
21273;BME280;36726;52.328;10.552;2023-02-25T00:23:31;98800.88;;;4.14;100.00
21273;BME280;36726;52.328;10.552;2023-02-25T00:25:59;98800.00;;;4.13;100.00
21273;BME280;36726;52.328;10.552;2023-02-25T00:28:26;98806.09;;;4.11;100.00
21273;BME280;36726;52.328;10.552;2023-02-25T00:30:53;98810.44;;;4.09;100.00
21273;BME280;36726;52.328;10.552;2023-02-25T00:33:20;98811.25;;;4.05;100.00
21273;BME280;36726;52.328;10.552;2023-02-25T00:35:46;98814.69;;;4.01;100.00
21273;BME280;36726;52.328;10.552;2023-02-25T00:38:16;98819.06;;;3.99;100.00
21273;BME280;36726;52.328;10.552;2023-02-25T00:40:44;98813.78;;;3.96;100.00
21273;BME280;36726;52.328;10.552;2023-02-25T00:43:11;98803.31;;;3.97;100.00
21273;BME280;36726;52.328;10.552;2023-02-25T00:45:38;98818.16;;;3.98;100.00
21273;BME280;36726;52.328;10.552;2023-02-25T00:48:06;98817.28;;;3.98;100.00
21273;BME280;36726;52.328;10.552;2023-02-25T00:50:34;98812.94;;;3.97;100.00
21273;BME280;36726;52.328;10.552;2023-02-25T00:53:01;98818.16;;;3.97;100.00
21273;BME280;36726;52.328;10.552;2023-02-25T00:55:27;98817.28;;;3.96;100.00
21273;BME280;36726;52.328;10.552;2023-02-25T00:57:59;98812.94;;;3.97;100.00
21273;BME280;36726;52.328;10.552;2023-02-25T01:00:28;98817.28;;;3.99;100.00
21273;BME280;36726;52.328;10.552;2023-02-25T01:02:56;98824.31;;;4.02;100.00
21273;BME280;36726;52.328;10.552;2023-02-25T01:05:23;98819.97;;;4.04;100.00
21273;BME280;36726;52.328;10.552;2023-02-25T01:07:51;98832.22;;;4.08;100.00
21273;BME280;36726;52.328;10.552;2023-02-25T01:10:18;98830.53;;;4.13;100.00
21273;BME280;36726;52.328;10.552;2023-02-25T01:12:45;98831.44;;;4.15;100.00
21273;BME280;36726;52.328;10.552;2023-02-25T01:15:13;98823.53;;;4.13;100.00
21273;BME280;36726;52.328;10.552;2023-02-25T01:17:39;98822.63;;;4.10;100.00
21273;BME280;36726;52.328;10.552;2023-02-25T01:20:07;98822.63;;;4.08;100.00
21273;BME280;36726;52.328;10.552;2023-02-25T01:22:38;98840.94;;;4.08;100.00
21273;BME280;36726;52.328;10.552;2023-02-25T01:25:11;98841.84;;;4.10;100.00
21273;BME280;36726;52.328;10.552;2023-02-25T01:27:38;98834.00;;;4.12;100.00
21273;BME280;36726;52.328;10.552;2023-02-25T01:30:07;98845.34;;;4.12;100.00
21273;BME280;36726;52.328;10.552;2023-02-25T01:32:34;98847.09;;;4.13;100.00
21273;BME280;36726;52.328;10.552;2023-02-25T01:35:00;98852.31;;;4.13;100.00
21273;BME280;36726;52.328;10.552;2023-02-25T01:37:28;98848.88;;;4.17;100.00
21273;BME280;36726;52.328;10.552;2023-02-25T01:39:55;98857.63;;;4.19;100.00
21273;BME280;36726;52.328;10.552;2023-02-25T01:42:21;98858.50;;;4.20;98.64
21273;BME280;36726;52.328;10.552;2023-02-25T01:47:47;98893.31;;;4.11;98.59
21273;BME280;36726;52.328;10.552;2023-02-25T01:50:18;98884.50;;;4.05;97.93
21273;BME280;36726;52.328;10.552;2023-02-25T01:52:45;98899.25;;;3.98;97.55
21273;BME280;36726;52.328;10.552;2023-02-25T01:55:12;98895.72;;;3.93;97.19
21273;BME280;36726;52.328;10.552;2023-02-25T01:57:39;98899.13;;;3.89;97.46
21273;BME280;36726;52.328;10.552;2023-02-25T02:00:07;98899.06;;;3.86;97.67
21273;BME280;36726;52.328;10.552;2023-02-25T02:02:38;98896.41;;;3.82;97.10
21273;BME280;36726;52.328;10.552;2023-02-25T02:05:05;98890.28;;;3.78;96.27
21273;BME280;36726;52.328;10.552;2023-02-25T02:07:32;98907.66;;;3.75;95.89
21273;BME280;36726;52.328;10.552;2023-02-25T02:09:59;98902.34;;;3.70;94.89
21273;BME280;36726;52.328;10.552;2023-02-25T02:12:30;98899.72;;;3.67;94.27
21273;BME280;36726;52.328;10.552;2023-02-25T02:15:01;98901.44;;;3.67;94.79
21273;BME280;36726;52.328;10.552;2023-02-25T02:17:37;98906.66;;;3.67;94.63
21273;BME280;36726;52.328;10.552;2023-02-25T02:20:11;98911.97;;;3.70;92.75
21273;BME280;36726;52.328;10.552;2023-02-25T02:22:47;98928.56;;;3.73;94.06
21273;BME280;36726;52.328;10.552;2023-02-25T02:28:31;98917.34;;;3.82;94.31
21273;BME280;36726;52.328;10.552;2023-02-25T02:31:21;98909.50;;;3.83;92.58
21273;BME280;36726;52.328;10.552;2023-02-25T02:34:40;98917.38;;;3.86;91.00
21273;BME280;36726;52.328;10.552;2023-02-25T02:37:37;98923.56;;;3.90;90.10
21273;BME280;36726;52.328;10.552;2023-02-25T02:40:13;98932.31;;;3.93;89.87
21273;BME280;36726;52.328;10.552;2023-02-25T02:49:23;98932.34;;;3.96;92.63
21273;BME280;36726;52.328;10.552;2023-02-25T02:51:57;98931.47;;;3.96;92.45
21273;BME280;36726;52.328;10.552;2023-02-25T02:54:34;98934.94;;;3.95;92.84
21273;BME280;36726;52.328;10.552;2023-02-25T02:57:05;98937.56;;;3.95;93.21
21273;BME280;36726;52.328;10.552;2023-02-25T02:59:38;98938.41;;;3.94;93.90
21273;BME280;36726;52.328;10.552;2023-02-25T03:02:13;98939.28;;;3.93;94.33
21273;BME280;36726;52.328;10.552;2023-02-25T03:04:45;98947.13;;;3.91;95.29
21273;BME280;36726;52.328;10.552;2023-02-25T03:07:15;98945.31;;;3.89;96.41
21273;BME280;36726;52.328;10.552;2023-02-25T03:09:50;98951.38;;;3.85;95.99
21273;BME280;36726;52.328;10.552;2023-02-25T03:12:18;98952.25;;;3.85;96.80
21273;BME280;36726;52.328;10.552;2023-02-25T03:14:46;98956.66;;;3.88;97.38
21273;BME280;36726;52.328;10.552;2023-02-25T03:17:19;98954.94;;;3.90;97.83
21273;BME280;36726;52.328;10.552;2023-02-25T03:19:55;98961.03;;;3.92;99.74
21273;BME280;36726;52.328;10.552;2023-02-25T03:22:31;98957.50;;;3.87;100.00
21273;BME280;36726;52.328;10.552;2023-02-25T03:25:04;98964.44;;;3.85;100.00
21273;BME280;36726;52.328;10.552;2023-02-25T03:27:36;98972.25;;;3.80;100.00
21273;BME280;36726;52.328;10.552;2023-02-25T03:30:09;98964.28;;;3.74;100.00
21273;BME280;36726;52.328;10.552;2023-02-25T03:32:44;98967.78;;;3.72;100.00
21273;BME280;36726;52.328;10.552;2023-02-25T03:35:13;98976.41;;;3.68;100.00
21273;BME280;36726;52.328;10.552;2023-02-25T03:37:45;98977.28;;;3.68;100.00
21273;BME280;36726;52.328;10.552;2023-02-25T03:40:15;98983.34;;;3.66;100.00
21273;BME280;36726;52.328;10.552;2023-02-25T03:42:52;98989.47;;;3.66;100.00
21273;BME280;36726;52.328;10.552;2023-02-25T03:45:22;98992.09;;;3.66;100.00
21273;BME280;36726;52.328;10.552;2023-02-25T03:47:50;98992.94;;;3.67;100.00
21273;BME280;36726;52.328;10.552;2023-02-25T03:50:21;98996.44;;;3.66;100.00
21273;BME280;36726;52.328;10.552;2023-02-25T03:52:53;98999.94;;;3.66;98.59
21273;BME280;36726;52.328;10.552;2023-02-25T03:55:46;99013.84;;;3.65;97.18
21273;BME280;36726;52.328;10.552;2023-02-25T03:58:14;99006.88;;;3.66;96.14
21273;BME280;36726;52.328;10.552;2023-02-25T04:00:42;99017.34;;;3.66;95.94
21273;BME280;36726;52.328;10.552;2023-02-25T04:03:09;99014.72;;;3.66;94.77
21273;BME280;36726;52.328;10.552;2023-02-25T04:05:37;99033.03;;;3.67;94.75
21273;BME280;36726;52.328;10.552;2023-02-25T04:08:05;99028.69;;;3.66;93.68
21273;BME280;36726;52.328;10.552;2023-02-25T04:10:42;99033.00;;;3.64;92.45
21273;BME280;36726;52.328;10.552;2023-02-25T04:13:10;99045.22;;;3.65;91.58
21273;BME280;36726;52.328;10.552;2023-02-25T04:15:37;99040.84;;;3.64;91.17
21273;BME280;36726;52.328;10.552;2023-02-25T04:18:04;99038.22;;;3.64;91.34
21273;BME280;36726;52.328;10.552;2023-02-25T04:20:32;99044.31;;;3.63;89.52
21273;BME280;36726;52.328;10.552;2023-02-25T04:22:59;99047.81;;;3.64;89.09
21273;BME280;36726;52.328;10.552;2023-02-25T04:25:26;99059.16;;;3.64;89.05
21273;BME280;36726;52.328;10.552;2023-02-25T04:27:53;99046.91;;;3.63;88.82
21273;BME280;36726;52.328;10.552;2023-02-25T04:30:19;99054.75;;;3.63;88.78
21273;BME280;36726;52.328;10.552;2023-02-25T04:32:46;99059.16;;;3.64;88.79
21273;BME280;36726;52.328;10.552;2023-02-25T04:35:13;99058.25;;;3.64;88.97
21273;BME280;36726;52.328;10.552;2023-02-25T04:37:40;99067.81;;;3.63;88.58
21273;BME280;36726;52.328;10.552;2023-02-25T04:40:12;99063.50;;;3.64;89.00
21273;BME280;36726;52.328;10.552;2023-02-25T04:42:39;99066.06;;;3.61;88.20
21273;BME280;36726;52.328;10.552;2023-02-25T04:45:07;99070.41;;;3.62;89.04
21273;BME280;36726;52.328;10.552;2023-02-25T04:47:35;99074.75;;;3.61;88.24
21273;BME280;36726;52.328;10.552;2023-02-25T04:50:02;99066.03;;;3.59;88.46
21273;BME280;36726;52.328;10.552;2023-02-25T04:52:29;99076.44;;;3.58;88.81
21273;BME280;36726;52.328;10.552;2023-02-25T04:54:56;99072.94;;;3.56;88.40
21273;BME280;36726;52.328;10.552;2023-02-25T04:57:22;99082.50;;;3.54;88.21
21273;BME280;36726;52.328;10.552;2023-02-25T04:59:49;99085.06;;;3.52;88.40
21273;BME280;36726;52.328;10.552;2023-02-25T05:02:15;99079.81;;;3.51;88.67
21273;BME280;36726;52.328;10.552;2023-02-25T05:04:42;99096.28;;;3.47;87.10
21273;BME280;36726;52.328;10.552;2023-02-25T05:07:09;99094.50;;;3.43;88.30
21273;BME280;36726;52.328;10.552;2023-02-25T05:09:35;99083.97;;;3.38;88.20
21273;BME280;36726;52.328;10.552;2023-02-25T05:12:02;99085.63;;;3.35;87.98
21273;BME280;36726;52.328;10.552;2023-02-25T05:14:29;99103.88;;;3.32;87.89
21273;BME280;36726;52.328;10.552;2023-02-25T05:16:58;99089.91;;;3.28;87.48
21273;BME280;36726;52.328;10.552;2023-02-25T05:19:24;99089.00;;;3.28;86.67
21273;BME280;36726;52.328;10.552;2023-02-25T05:21:52;99093.34;;;3.27;86.88
21273;BME280;36726;52.328;10.552;2023-02-25T05:24:19;99097.72;;;3.27;86.16
21273;BME280;36726;52.328;10.552;2023-02-25T05:26:49;99095.94;;;3.26;85.59
21273;BME280;36726;52.328;10.552;2023-02-25T05:29:16;99101.16;;;3.26;86.05
21273;BME280;36726;52.328;10.552;2023-02-25T05:31:43;99099.44;;;3.26;85.94
21273;BME280;36726;52.328;10.552;2023-02-25T05:34:10;99098.56;;;3.27;85.56
21273;BME280;36726;52.328;10.552;2023-02-25T05:36:36;99108.19;;;3.28;85.86
21273;BME280;36726;52.328;10.552;2023-02-25T05:39:03;99111.66;;;3.29;86.23
21273;BME280;36726;52.328;10.552;2023-02-25T05:41:29;99107.31;;;3.29;85.84
21273;BME280;36726;52.328;10.552;2023-02-25T05:43:56;99116.88;;;3.29;85.80
21273;BME280;36726;52.328;10.552;2023-02-25T05:46:23;99113.41;;;3.28;85.65
21273;BME280;36726;52.328;10.552;2023-02-25T05:48:51;99110.78;;;3.28;85.99
21273;BME280;36726;52.328;10.552;2023-02-25T05:51:19;99120.38;;;3.29;86.07
21273;BME280;36726;52.328;10.552;2023-02-25T05:53:49;99124.66;;;3.26;84.83
21273;BME280;36726;52.328;10.552;2023-02-25T05:56:18;99118.53;;;3.24;85.22
21273;BME280;36726;52.328;10.552;2023-02-25T05:58:45;99120.28;;;3.23;85.58
21273;BME280;36726;52.328;10.552;2023-02-25T06:01:23;99135.91;;;3.22;85.72
21273;BME280;36726;52.328;10.552;2023-02-25T06:03:52;99134.19;;;3.22;86.48
21273;BME280;36726;52.328;10.552;2023-02-25T06:06:26;99148.97;;;3.22;86.75
21273;BME280;36726;52.328;10.552;2023-02-25T06:08:53;99146.31;;;3.18;87.05
21273;BME280;36726;52.328;10.552;2023-02-25T06:11:30;99148.91;;;3.17;88.16
21273;BME280;36726;52.328;10.552;2023-02-25T06:13:58;99150.56;;;3.13;88.44
21273;BME280;36726;52.328;10.552;2023-02-25T06:16:26;99143.56;;;3.12;89.57
21273;BME280;36726;52.328;10.552;2023-02-25T06:18:59;99160.91;;;3.09;89.38
21273;BME280;36726;52.328;10.552;2023-02-25T06:21:26;99150.44;;;3.07;89.38
21273;BME280;36726;52.328;10.552;2023-02-25T06:23:53;99186.97;;;3.06;89.27
21273;BME280;36726;52.328;10.552;2023-02-25T06:26:19;99174.72;;;3.03;90.89
21273;BME280;36726;52.328;10.552;2023-02-25T06:28:46;99189.53;;;3.01;91.97
21273;BME280;36726;52.328;10.552;2023-02-25T06:31:15;99180.56;;;2.90;93.99
21273;BME280;36726;52.328;10.552;2023-02-25T06:33:43;99210.06;;;2.86;95.17
21273;BME280;36726;52.328;10.552;2023-02-25T06:36:11;99197.00;;;2.85;95.41
21273;BME280;36726;52.328;10.552;2023-02-25T06:38:38;99207.44;;;2.85;94.85
21273;BME280;36726;52.328;10.552;2023-02-25T06:41:07;99210.06;;;2.85;94.22
21273;BME280;36726;52.328;10.552;2023-02-25T06:43:34;99215.31;;;2.86;94.15
21273;BME280;36726;52.328;10.552;2023-02-25T06:46:09;99220.53;;;2.86;93.62
21273;BME280;36726;52.328;10.552;2023-02-25T06:48:36;99234.53;;;2.90;92.46
21273;BME280;36726;52.328;10.552;2023-02-25T06:51:03;99232.81;;;2.92;93.14
21273;BME280;36726;52.328;10.552;2023-02-25T06:53:39;99225.91;;;2.94;92.69
21273;BME280;36726;52.328;10.552;2023-02-25T06:56:06;99236.38;;;2.95;92.50
21273;BME280;36726;52.328;10.552;2023-02-25T06:58:34;99239.06;;;2.98;91.59
21273;BME280;36726;52.328;10.552;2023-02-25T07:01:08;99246.06;;;2.99;91.92
21273;BME280;36726;52.328;10.552;2023-02-25T07:03:35;99248.78;;;3.05;92.50
21273;BME280;36726;52.328;10.552;2023-02-25T07:06:02;99243.56;;;3.07;91.61
21273;BME280;36726;52.328;10.552;2023-02-25T07:08:29;99256.72;;;3.10;91.21
21273;BME280;36726;52.328;10.552;2023-02-25T07:11:09;99260.25;;;3.12;90.98
21273;BME280;36726;52.328;10.552;2023-02-25T07:13:35;99253.28;;;3.12;90.07
21273;BME280;36726;52.328;10.552;2023-02-25T07:16:02;99264.63;;;3.14;90.53
21273;BME280;36726;52.328;10.552;2023-02-25T07:18:29;99275.09;;;3.14;90.95
21273;BME280;36726;52.328;10.552;2023-02-25T07:20:56;99274.25;;;3.14;90.38
21273;BME280;36726;52.328;10.552;2023-02-25T07:23:23;99276.78;;;3.12;90.90
21273;BME280;36726;52.328;10.552;2023-02-25T07:25:50;99273.34;;;3.13;91.48
21273;BME280;36726;52.328;10.552;2023-02-25T07:28:16;99282.94;;;3.14;92.09
21273;BME280;36726;52.328;10.552;2023-02-25T07:30:43;99294.16;;;3.10;91.42
21273;BME280;36726;52.328;10.552;2023-02-25T07:33:10;99290.59;;;3.07;92.79
21273;BME280;36726;52.328;10.552;2023-02-25T07:35:36;99280.97;;;3.04;94.02
21273;BME280;36726;52.328;10.552;2023-02-25T07:38:03;99287.88;;;3.01;95.13
21273;BME280;36726;52.328;10.552;2023-02-25T07:40:29;99294.78;;;2.99;95.12
21273;BME280;36726;52.328;10.552;2023-02-25T07:42:56;99301.69;;;2.97;96.60
21273;BME280;36726;52.328;10.552;2023-02-25T07:45:22;99297.34;;;2.96;96.87
21273;BME280;36726;52.328;10.552;2023-02-25T07:47:51;99301.75;;;3.00;97.27
21273;BME280;36726;52.328;10.552;2023-02-25T07:50:18;99313.09;;;3.00;95.71
21273;BME280;36726;52.328;10.552;2023-02-25T07:52:44;99297.44;;;3.00;95.65
21273;BME280;36726;52.328;10.552;2023-02-25T07:55:11;99308.78;;;3.02;95.90
21273;BME280;36726;52.328;10.552;2023-02-25T07:57:37;99315.75;;;3.02;94.90
21273;BME280;36726;52.328;10.552;2023-02-25T08:00:04;99318.31;;;3.00;95.08
21273;BME280;36726;52.328;10.552;2023-02-25T08:02:38;99310.47;;;2.99;94.10
21273;BME280;36726;52.328;10.552;2023-02-25T08:05:05;99325.22;;;2.97;94.67
21273;BME280;36726;52.328;10.552;2023-02-25T08:07:32;99317.38;;;2.97;94.86
21273;BME280;36726;52.328;10.552;2023-02-25T08:09:59;99328.69;;;2.96;94.79
21273;BME280;36726;52.328;10.552;2023-02-25T08:12:25;99330.47;;;2.98;94.62
21273;BME280;36726;52.328;10.552;2023-02-25T08:14:52;99326.13;;;2.99;95.17
21273;BME280;36726;52.328;10.552;2023-02-25T08:17:18;99327.16;;;3.07;94.05
21273;BME280;36726;52.328;10.552;2023-02-25T08:19:45;99327.28;;;3.11;92.95
21273;BME280;36726;52.328;10.552;2023-02-25T08:22:11;99336.09;;;3.16;92.09
21273;BME280;36726;52.328;10.552;2023-02-25T08:24:38;99336.28;;;3.26;92.09
21273;BME280;36726;52.328;10.552;2023-02-25T08:27:05;99345.09;;;3.31;91.10
21273;BME280;36726;52.328;10.552;2023-02-25T08:29:37;99336.44;;;3.32;89.75
21273;BME280;36726;52.328;10.552;2023-02-25T08:32:06;99336.50;;;3.35;91.29
21273;BME280;36726;52.328;10.552;2023-02-25T08:34:33;99351.34;;;3.36;88.81
21273;BME280;36726;52.328;10.552;2023-02-25T08:37:00;99345.22;;;3.35;88.19
21273;BME280;36726;52.328;10.552;2023-02-25T08:39:26;99357.53;;;3.41;88.84
21273;BME280;36726;52.328;10.552;2023-02-25T08:41:54;99339.25;;;3.41;88.64
21273;BME280;36726;52.328;10.552;2023-02-25T08:44:20;99348.06;;;3.46;87.98
21273;BME280;36726;52.328;10.552;2023-02-25T08:46:47;99356.78;;;3.46;88.07
21273;BME280;36726;52.328;10.552;2023-02-25T08:49:14;99339.44;;;3.50;87.81
21273;BME280;36726;52.328;10.552;2023-02-25T08:51:41;99343.00;;;3.53;86.42
21273;BME280;36726;52.328;10.552;2023-02-25T08:54:10;99348.31;;;3.58;86.56
21273;BME280;36726;52.328;10.552;2023-02-25T08:56:38;99352.91;;;3.68;87.84
21273;BME280;36726;52.328;10.552;2023-02-25T08:59:11;99357.34;;;3.72;85.22
21273;BME280;36726;52.328;10.552;2023-02-25T09:01:38;99360.00;;;3.75;85.72
21273;BME280;36726;52.328;10.552;2023-02-25T09:04:16;99360.16;;;3.81;84.41
21273;BME280;36726;52.328;10.552;2023-02-25T09:06:44;99362.84;;;3.85;82.77
21273;BME280;36726;52.328;10.552;2023-02-25T09:09:13;99367.31;;;3.91;83.04
21273;BME280;36726;52.328;10.552;2023-02-25T09:11:41;99365.66;;;3.96;83.31
21273;BME280;36726;52.328;10.552;2023-02-25T09:14:08;99378.84;;;4.00;82.58
21273;BME280;36726;52.328;10.552;2023-02-25T09:16:35;99355.47;;;4.09;82.41
21273;BME280;36726;52.328;10.552;2023-02-25T09:19:02;99374.78;;;4.16;81.74
21273;BME280;36726;52.328;10.552;2023-02-25T09:21:29;99374.91;;;4.22;82.10
21273;BME280;36726;52.328;10.552;2023-02-25T09:23:55;99375.88;;;4.29;81.83
21273;BME280;36726;52.328;10.552;2023-02-25T09:26:23;99380.19;;;4.25;81.13
21273;BME280;36726;52.328;10.552;2023-02-25T09:28:51;99387.25;;;4.29;83.17
21273;BME280;36726;52.328;10.552;2023-02-25T09:31:18;99395.06;;;4.28;81.88
21273;BME280;36726;52.328;10.552;2023-02-25T09:33:44;99402.06;;;4.29;83.46
21273;BME280;36726;52.328;10.552;2023-02-25T09:36:15;99402.94;;;4.28;83.44
21273;BME280;36726;52.328;10.552;2023-02-25T09:38:43;99398.44;;;4.20;83.78
21273;BME280;36726;52.328;10.552;2023-02-25T09:43:59;99416.59;;;3.71;89.70
21273;BME280;36726;52.328;10.552;2023-02-25T09:46:28;99418.13;;;3.62;94.73
21273;BME280;36726;52.328;10.552;2023-02-25T09:49:04;99424.22;;;3.61;93.61
21273;BME280;36726;52.328;10.552;2023-02-25T09:51:36;99441.25;;;3.44;93.56
21273;BME280;36726;52.328;10.552;2023-02-25T09:54:24;99440.06;;;3.31;96.16
21273;BME280;36726;52.328;10.552;2023-02-25T09:56:54;99441.75;;;3.29;98.13
21273;BME280;36726;52.328;10.552;2023-02-25T09:59:21;99446.81;;;3.22;99.97
21273;BME280;36726;52.328;10.552;2023-02-25T10:02:00;99452.66;;;3.11;100.00
21273;BME280;36726;52.328;10.552;2023-02-25T10:04:31;99464.66;;;3.03;100.00
21273;BME280;36726;52.328;10.552;2023-02-25T10:07:11;99470.09;;;3.12;100.00
21273;BME280;36726;52.328;10.552;2023-02-25T10:09:53;99472.88;;;3.18;100.00
21273;BME280;36726;52.328;10.552;2023-02-25T10:12:34;99481.72;;;3.25;100.00
21273;BME280;36726;52.328;10.552;2023-02-25T10:18:20;99483.00;;;3.41;100.00
21273;BME280;36726;52.328;10.552;2023-02-25T10:21:03;99486.78;;;3.53;100.00
21273;BME280;36726;52.328;10.552;2023-02-25T10:23:50;99503.59;;;3.64;100.00
21273;BME280;36726;52.328;10.552;2023-02-25T10:26:32;99498.66;;;3.78;97.13
21273;BME280;36726;52.328;10.552;2023-02-25T10:29:06;99500.69;;;3.89;96.30
21273;BME280;36726;52.328;10.552;2023-02-25T10:31:34;99494.56;;;3.89;94.16
21273;BME280;36726;52.328;10.552;2023-02-25T10:34:17;99492.25;;;4.02;94.10
21273;BME280;36726;52.328;10.552;2023-02-25T10:36:51;99506.69;;;4.26;93.62
21273;BME280;36726;52.328;10.552;2023-02-25T10:39:18;99497.53;;;4.47;91.23
21273;BME280;36726;52.328;10.552;2023-02-25T10:41:45;99501.16;;;4.55;89.65
21273;BME280;36726;52.328;10.552;2023-02-25T10:44:11;99497.81;;;4.62;87.50
21273;BME280;36726;52.328;10.552;2023-02-25T10:46:58;99510.81;;;4.56;86.33
21273;BME280;36726;52.328;10.552;2023-02-25T10:49:28;99507.28;;;4.54;86.89
21273;BME280;36726;52.328;10.552;2023-02-25T10:54:43;99537.66;;;4.46;83.28
21273;BME280;36726;52.328;10.552;2023-02-25T10:57:15;99528.88;;;4.44;81.47
21273;BME280;36726;52.328;10.552;2023-02-25T10:59:44;99511.53;;;4.48;81.21
21273;BME280;36726;52.328;10.552;2023-02-25T11:02:22;99529.06;;;4.53;78.86
21273;BME280;36726;52.328;10.552;2023-02-25T11:04:51;99537.25;;;4.70;78.94
21273;BME280;36726;52.328;10.552;2023-02-25T11:07:40;99528.59;;;4.74;77.09
21273;BME280;36726;52.328;10.552;2023-02-25T11:10:25;99531.34;;;4.78;79.20
21273;BME280;36726;52.328;10.552;2023-02-25T11:12:54;99567.00;;;4.73;79.58
21273;BME280;36726;52.328;10.552;2023-02-25T11:20:51;99552.09;;;4.69;85.40
21273;BME280;36726;52.328;10.552;2023-02-25T11:23:22;99560.63;;;4.59;84.65
21273;BME280;36726;52.328;10.552;2023-02-25T11:25:54;99574.28;;;4.45;83.10
21273;BME280;36726;52.328;10.552;2023-02-25T11:29:00;99561.63;;;4.24;83.23
21273;BME280;36726;52.328;10.552;2023-02-25T11:31:22;99568.63;;;4.25;84.07
21273;BME280;36726;52.328;10.552;2023-02-25T11:33:53;99574.81;;;4.30;82.71
21273;BME280;36726;52.328;10.552;2023-02-25T11:36:24;99588.25;;;4.45;81.99
21273;BME280;36726;52.328;10.552;2023-02-25T11:39:06;99573.53;;;4.50;81.91
21273;BME280;36726;52.328;10.552;2023-02-25T11:41:33;99574.38;;;4.49;80.54
21273;BME280;36726;52.328;10.552;2023-02-25T11:46:46;99592.75;;;4.51;81.61
21273;BME280;36726;52.328;10.552;2023-02-25T11:49:29;99577.09;;;4.55;82.41
21273;BME280;36726;52.328;10.552;2023-02-25T11:52:08;99584.66;;;4.82;81.79
21273;BME280;36726;52.328;10.552;2023-02-25T11:57:26;99591.84;;;4.92;79.81
21273;BME280;36726;52.328;10.552;2023-02-25T12:03:06;99585.81;;;4.53;81.58
21273;BME280;36726;52.328;10.552;2023-02-25T12:11:12;99601.06;;;4.73;76.09
21273;BME280;36726;52.328;10.552;2023-02-25T12:14:05;99593.47;;;4.85;75.23
21273;BME280;36726;52.328;10.552;2023-02-25T12:19:29;99611.31;;;4.63;76.03
21273;BME280;36726;52.328;10.552;2023-02-25T12:27:34;99619.72;;;4.48;76.08
21273;BME280;36726;52.328;10.552;2023-02-25T12:35:54;99637.41;;;4.19;78.50
21273;BME280;36726;52.328;10.552;2023-02-25T12:38:59;99653.06;;;4.18;80.58
21273;BME280;36726;52.328;10.552;2023-02-25T12:41:54;99654.47;;;4.02;87.22
21273;BME280;36726;52.328;10.552;2023-02-25T12:47:23;99662.03;;;3.92;90.63
21273;BME280;36726;52.328;10.552;2023-02-25T13:01:29;99658.75;;;3.99;86.65
21273;BME280;36726;52.328;10.552;2023-02-25T13:04:08;99658.81;;;4.02;86.29
21273;BME280;36726;52.328;10.552;2023-02-25T13:07:05;99663.34;;;4.10;84.16
21273;BME280;36726;52.328;10.552;2023-02-25T13:10:23;99668.00;;;4.22;85.17
21273;BME280;36726;52.328;10.552;2023-02-25T13:12:46;99670.75;;;4.28;81.43
21273;BME280;36726;52.328;10.552;2023-02-25T13:17:49;99660.34;;;4.30;78.49
21273;BME280;36726;52.328;10.552;2023-02-25T13:20:31;99669.69;;;4.18;78.65
21273;BME280;36726;52.328;10.552;2023-02-25T13:23:13;99680.53;;;3.99;77.52
21273;BME280;36726;52.328;10.552;2023-02-25T13:25:57;99702.84;;;3.85;80.08
21273;BME280;36726;52.328;10.552;2023-02-25T13:29:02;99705.63;;;2.96;94.14
21273;BME280;36726;52.328;10.552;2023-02-25T13:31:50;99708.16;;;2.37;100.00
21273;BME280;36726;52.328;10.552;2023-02-25T13:37:18;99727.25;;;1.83;100.00
21273;BME280;36726;52.328;10.552;2023-02-25T13:40:06;99720.59;;;1.66;100.00
21273;BME280;36726;52.328;10.552;2023-02-25T13:45:48;99726.22;;;1.53;100.00
21273;BME280;36726;52.328;10.552;2023-02-25T13:54:37;99726.63;;;1.65;100.00
21273;BME280;36726;52.328;10.552;2023-02-25T13:57:34;99741.75;;;1.75;100.00
21273;BME280;36726;52.328;10.552;2023-02-25T14:00:46;99735.19;;;1.86;100.00
21273;BME280;36726;52.328;10.552;2023-02-25T14:06:23;99740.84;;;1.99;100.00
21273;BME280;36726;52.328;10.552;2023-02-25T14:09:15;99740.13;;;2.03;100.00
21273;BME280;36726;52.328;10.552;2023-02-25T14:17:41;99763.22;;;2.18;100.00
21273;BME280;36726;52.328;10.552;2023-02-25T14:20:38;99757.16;;;2.19;100.00
21273;BME280;36726;52.328;10.552;2023-02-25T14:23:15;99783.31;;;2.22;100.00
21273;BME280;36726;52.328;10.552;2023-02-25T14:26:28;99778.31;;;2.28;100.00
21273;BME280;36726;52.328;10.552;2023-02-25T14:29:06;99771.66;;;2.36;98.02
21273;BME280;36726;52.328;10.552;2023-02-25T14:31:52;99804.94;;;2.43;97.46
21273;BME280;36726;52.328;10.552;2023-02-25T14:34:45;99785.16;;;2.51;93.70
21273;BME280;36726;52.328;10.552;2023-02-25T14:37:36;99786.72;;;2.45;93.62
21273;BME280;36726;52.328;10.552;2023-02-25T14:40:48;99783.41;;;2.50;92.20
21273;BME280;36726;52.328;10.552;2023-02-25T14:48:27;99796.88;;;2.64;91.31
21273;BME280;36726;52.328;10.552;2023-02-25T14:57:08;99796.59;;;2.55;89.71
21273;BME280;36726;52.328;10.552;2023-02-25T15:02:26;99801.97;;;2.59;87.75
21273;BME280;36726;52.328;10.552;2023-02-25T15:08:00;99803.28;;;2.73;85.96
21273;BME280;36726;52.328;10.552;2023-02-25T15:11:04;99812.06;;;2.75;83.73
21273;BME280;36726;52.328;10.552;2023-02-25T15:13:54;99818.94;;;2.73;84.22